Data for 05/30/2018

Time Sea-Level Adjusted Pressure Absolute Pressure Temperature Relative Humidity Dew Point   
(mb) (inHg) (mb) (inHg) (C) (F) (%) (C) (F)
00:05 1013 29.91 843 24.89 14.7 58.5 56 6 42.8
00:10 1013 29.91 843 24.89 14.9 58.8 55 5.9 42.7
00:15 1013 29.91 843 24.89 14.9 58.9 54 5.9 42.6
00:20 1013 29.91 843 24.89 14.9 58.7 55 6.1 42.9
00:25 1013 29.91 842 24.86 14.9 58.8 55 6 42.7
00:30 1013 29.91 842 24.86 14.9 58.7 55 6 42.9
00:35 1013 29.91 842 24.86 14.7 58.5 55 6 42.8
00:40 1013 29.91 842 24.86 14.7 58.4 55 5.8 42.5
00:45 1013 29.91 842 24.86 14.7 58.4 55 5.7 42.2
00:50 1013 29.91 842 24.86 14.7 58.4 55 5.7 42.3
00:55 1013 29.91 842 24.86 14.8 58.6 54 5.6 42.1
01:00 1013 29.91 842 24.86 14.8 58.7 54 5.6 42.1
01:05 1013 29.91 842 24.86 14.8 58.6 53 5.5 41.9
01:10 1013 29.91 842 24.86 14.8 58.7 53 5.5 41.8
01:15 1013 29.91 842 24.86 14.6 58.3 55 5.8 42.4
01:20 1013 29.91 842 24.86 14.3 57.8 55 5.5 42
01:25 1013 29.91 842 24.86 14.2 57.6 55 5.5 41.9
01:30 1013 29.91 842 24.86 14.3 57.7 55 5.5 42
01:35 1013 29.91 842 24.86 14.2 57.5 55 5.4 41.7
01:40 1013 29.91 842 24.86 14.1 57.4 56 5.5 41.9
01:45 1013 29.91 842 24.86 14.2 57.5 54 5.2 41.3
01:50 1013 29.91 842 24.86 14.2 57.6 55 5.5 41.9
01:55 1013 29.91 842 24.86 13.9 57 56 5.2 41.4
02:00 1013 29.91 842 24.86 14 57.2 55 5.1 41.3
02:05 1013 29.91 842 24.86 14 57.3 55 5.2 41.3
02:10 1013 29.91 842 24.86 14 57.3 56 5.3 41.6
02:15 1013 29.91 842 24.86 13.9 57.1 55 5.1 41.2
02:20 1013 29.91 842 24.86 14 57.1 55 5.1 41.2
02:25 1013 29.91 842 24.86 13.8 56.9 55 5.1 41.3
02:30 1013 29.91 842 24.86 13.6 56.5 56 5 41
02:35 1013 29.91 842 24.86 13.7 56.6 56 5 41
02:40 1013 29.91 842 24.86 13.6 56.4 55 4.8 40.7
02:45 1013 29.91 842 24.86 13.6 56.5 55 4.8 40.6
02:50 1013 29.91 842 24.86 13.6 56.5 55 4.9 40.8
02:55 1013 29.91 842 24.86 13.6 56.6 55 4.8 40.6
03:00 1013 29.91 842 24.86 13.6 56.6 55 4.8 40.6
03:05 1013 29.91 842 24.86 13.7 56.6 54 4.7 40.4
03:10 1013 29.91 842 24.86 13.7 56.6 54 4.7 40.5
03:15 1013 29.91 842 24.86 13.7 56.6 54 4.7 40.4
03:20 1013 29.91 842 24.86 13.6 56.5 55 4.8 40.6
03:25 1012 29.88 842 24.86 13.5 56.3 55 4.7 40.5
03:30 1012 29.88 842 24.86 13.3 56 55 4.6 40.3
03:35 1012 29.88 842 24.86 13.2 55.7 55 4.5 40.1
03:40 1012 29.88 842 24.86 13.2 55.7 56 4.6 40.2
03:45 1013 29.91 842 24.86 13.1 55.6 55 4.4 39.9
03:50 1013 29.91 842 24.86 13.3 55.9 54 4.3 39.7
03:55 1013 29.91 842 24.86 13.3 55.9 54 4.3 39.8
04:00 1013 29.91 842 24.86 13.2 55.8 55 4.3 39.8
04:05 1013 29.91 842 24.86 13 55.5 55 4.2 39.6
04:10 1012 29.88 842 24.86 13.1 55.5 55 4.2 39.5
04:15 1012 29.88 842 24.86 13 55.4 55 4.3 39.8
04:20 1012 29.88 842 24.86 12.8 55.1 56 4.3 39.7
04:25 1012 29.88 842 24.86 12.7 54.9 56 4.1 39.5
04:30 1013 29.91 842 24.86 12.7 54.9 56 4.3 39.7
04:35 1013 29.91 842 24.86 12.6 54.7 56 4.2 39.6
04:40 1013 29.91 842 24.86 12.5 54.6 57 4.3 39.7
04:45 1013 29.91 842 24.86 12.4 54.4 57 4.2 39.5
04:50 1013 29.91 842 24.86 12.4 54.2 57 4.1 39.4
04:55 1013 29.91 842 24.86 12.4 54.4 56 3.9 38.9
05:00 1013 29.91 842 24.86 12.6 54.6 56 4 39.2
05:05 1013 29.91 842 24.86 12.7 54.8 55 3.9 38.9
05:10 1013 29.91 842 24.86 12.8 55 55 3.9 39.1
05:15 1013 29.91 842 24.86 12.8 55.1 54 3.9 39
05:20 1013 29.91 842 24.86 12.9 55.2 54 3.8 38.9
05:25 1013 29.91 842 24.86 12.9 55.3 53 3.8 38.8
05:30 1013 29.91 842 24.86 13 55.5 54 4 39.2
05:35 1013 29.91 842 24.86 13 55.5 54 3.9 39.1
05:40 1013 29.91 842 24.86 13.2 55.7 53 3.8 38.8
05:45 1012 29.88 842 24.86 13.5 56.2 51 3.6 38.5
05:50 1012 29.88 842 24.86 13.7 56.7 51 3.8 38.8
05:55 1012 29.88 842 24.86 13.7 56.6 52 4 39.1
06:00 1013 29.91 842 24.86 13.7 56.6 51 3.8 38.9
06:05 1013 29.91 842 24.86 13.8 56.8 51 3.7 38.7
06:10 1013 29.91 842 24.86 14 57.1 49 3.6 38.5
06:15 1013 29.91 842 24.86 14.4 57.8 49 3.9 39
06:20 1013 29.91 842 24.86 14.7 58.4 48 3.7 38.7
06:25 1013 29.91 842 24.86 14.9 58.8 46 3.4 38.1
06:30 1013 29.91 842 24.86 15.1 59.2 47 3.9 39.1
06:35 1013 29.91 842 24.86 15.5 59.9 46 3.9 39
06:40 1013 29.91 842 24.86 16.3 61.3 42 3.6 38.5
06:45 1013 29.91 842 24.86 16.4 61.6 42 3.8 38.8
06:50 1013 29.91 842 24.86 16.7 62.1 40 3.3 37.9
06:55 1013 29.91 842 24.86 17.5 63.5 41 4.3 39.8
07:00 1013 29.91 842 24.86 17.5 63.5 41 4.2 39.6
07:05 1013 29.91 842 24.86 17.5 63.6 39 3.6 38.6
07:10 1013 29.91 842 24.86 18.3 64.9 39 4.3 39.8
07:15 1013 29.91 842 24.86 18.5 65.2 38 4 39.2
07:20 1013 29.91 842 24.86 18.1 64.5 41 4.6 40.4
07:25 1013 29.91 842 24.86 18.7 65.6 40 5 41.1
07:30 1013 29.91 842 24.86 19.6 67.3 39 5.5 41.9
07:35 1013 29.91 842 24.86 19.4 66.9 42 6.3 43.3
07:40 1013 29.91 842 24.86 19.2 66.6 44 7 44.5
07:45 1013 29.91 842 24.86 18.8 65.8 46 7 44.6
07:50 1013 29.91 842 24.86 18.6 65.4 44 6.3 43.3
07:55 1013 29.91 842 24.86 17.8 64.1 46 6.3 43.3
08:00 1013 29.91 842 24.86 17.5 63.4 51 7.3 45.2
08:05 1013 29.91 842 24.86 17.6 63.7 48 6.6 44
08:10 1013 29.91 842 24.86 17.2 63 50 6.9 44.4
08:15 1013 29.91 842 24.86 16.7 62.1 51 6.6 43.9
08:20 1013 29.91 842 24.86 17.5 63.5 46 6 42.8
08:25 1013 29.91 842 24.86 17.8 64 48 6.8 44.2
08:30 1013 29.91 842 24.86 17.7 63.8 45 5.8 42.5
08:35 1013 29.91 842 24.86 17.9 64.2 46 6.1 43.1
08:40 1013 29.91 842 24.86 18.3 65 43 5.6 42.1
08:45 1013 29.91 842 24.86 18.7 65.6 42 5.6 42.1
08:50 1013 29.91 842 24.86 18.6 65.4 42 5.6 42.1
08:55 1013 29.91 842 24.86 19.2 66.5 39 4.9 40.7
09:00 1013 29.91 842 24.86 18.9 66 39 4.7 40.5
09:05 1013 29.91 842 24.86 19.2 66.6 37 4.4 40
09:10 1013 29.91 842 24.86 19.6 67.2 35 4 39.1
09:15 1013 29.91 842 24.86 19.1 66.3 32 2.4 36.2
09:20 1013 29.91 842 24.86 19.7 67.4 30 1.9 35.5
09:25 1012 29.88 842 24.86 19.6 67.3 31 2.4 36.3
09:30 1012 29.88 842 24.86 20.1 68.2 31 2.4 36.3
09:35 1012 29.88 842 24.86 20.8 69.5 29 2.3 36.2
09:40 1012 29.88 842 24.86 21.2 70.1 29 2.8 37
09:45 1012 29.88 842 24.86 20.6 69 29 2.3 36.1
09:50 1012 29.88 841 24.83 21.8 71.2 27 2.3 36.1
09:55 1012 29.88 841 24.83 21.8 71.2 28 2.8 37.1
10:00 1012 29.88 841 24.83 21.8 71.2 29 3.3 37.9
10:05 1012 29.88 841 24.83 20.8 69.5 29 2.5 36.5
10:10 1012 29.88 841 24.83 20.1 68.1 30 2.2 36
10:15 1012 29.88 841 24.83 20.3 68.5 32 3 37.4
10:20 1012 29.88 841 24.83 21.2 70.1 31 3.5 38.2
10:25 1012 29.88 841 24.83 22.1 71.8 30 3.9 39
10:30 1012 29.88 841 24.83 22.9 73.3 29 4 39.3
10:35 1012 29.88 841 24.83 22.2 71.9 28 3.2 37.8
10:40 1012 29.88 841 24.83 22 71.7 27 2.6 36.7
10:45 1012 29.88 841 24.83 22.7 72.8 28 3.5 38.2
10:50 1012 29.88 841 24.83 21.8 71.3 30 3.7 38.7
10:55 1012 29.88 841 24.83 22.1 71.7 29 3.6 38.5
11:00 1012 29.88 841 24.83 22.5 72.5 28 3.3 38
11:05 1012 29.88 841 24.83 22.5 72.4 29 3.7 38.7
11:10 1012 29.88 841 24.83 22.5 72.4 30 4 39.3
11:15 1011 29.85 841 24.83 22.7 72.8 30 4.4 40
11:20 1011 29.85 841 24.83 22.5 72.6 32 5.1 41.3
11:25 1011 29.85 841 24.83 22.3 72.1 32 4.9 40.8
11:30 1011 29.85 840 24.81 22.7 72.9 31 5.2 41.3
11:35 1011 29.85 840 24.81 22.7 72.9 31 5.1 41.1
11:40 1011 29.85 840 24.81 22.8 73 32 5.4 41.7
11:45 1011 29.85 840 24.81 22.1 71.8 30 4.2 39.5
11:50 1011 29.85 840 24.81 23 73.3 29 4 39.2
11:55 1011 29.85 840 24.81 23.7 74.6 28 4.1 39.3
12:00 1011 29.85 840 24.81 23.2 73.8 29 4.6 40.3
12:05 1011 29.85 840 24.81 24.1 75.4 27 4.4 39.9
12:10 1011 29.85 840 24.81 24.9 76.9 26 4.3 39.8
12:15 1011 29.85 840 24.81 25 76.9 25 3.8 38.8
12:20 1011 29.85 840 24.81 25.2 77.4 24 3.4 38.2
12:25 1011 29.85 840 24.81 25.1 77.2 25 3.9 39
12:30 1011 29.85 840 24.81 24.6 76.3 26 3.9 39.1
12:35 1011 29.85 840 24.81 24.5 76 27 4.6 40.2
12:40 1011 29.85 840 24.81 24.9 76.7 26 4.1 39.5
12:45 1011 29.85 840 24.81 24.9 76.7 26 4.3 39.7
12:50 1011 29.85 840 24.81 24.8 76.7 26 4.1 39.4
12:55 1011 29.85 840 24.81 25.2 77.3 25 4.3 39.7
13:00 1010 29.83 840 24.81 25.5 77.8 25 4.1 39.4
13:05 1010 29.83 839 24.78 26 78.7 24 4.2 39.5
13:10 1010 29.83 839 24.78 26.3 79.3 24 4.5 40
13:15 1010 29.83 839 24.78 25.6 78 25 4.6 40.2
13:20 1010 29.83 839 24.78 24.4 75.9 25 3.6 38.4
13:25 1010 29.83 839 24.78 24.4 76 27 4.3 39.7
13:30 1010 29.83 839 24.78 24.7 76.4 27 4.5 40.1
13:35 1010 29.83 839 24.78 25 77 26 4.3 39.8
13:40 1010 29.83 839 24.78 24.5 76.1 27 4.3 39.7
13:45 1010 29.83 839 24.78 25.1 77.1 26 4.3 39.7
13:50 1010 29.83 839 24.78 24.8 76.6 27 4.9 40.8
13:55 1010 29.83 839 24.78 24.3 75.7 27 4.3 39.7
14:00 1010 29.83 839 24.78 24 75.1 27 4.1 39.3
14:05 1010 29.83 839 24.78 24.3 75.7 26 3.9 39
14:10 1010 29.83 839 24.78 24.7 76.5 26 3.9 39
14:15 1010 29.83 839 24.78 24.6 76.3 26 3.8 38.9
14:20 1010 29.83 839 24.78 25.1 77.1 24 3.5 38.3
14:25 1010 29.83 839 24.78 24.6 76.4 24 3 37.5
14:30 1010 29.83 839 24.78 23.9 74.9 25 3.1 37.6
14:35 1010 29.83 839 24.78 24 75.3 24 2.6 36.8
14:40 1010 29.83 839 24.78 24.2 75.6 26 4 39.1
14:45 1010 29.83 839 24.78 23.9 75.1 27 4.1 39.3
14:50 1010 29.83 839 24.78 23.1 73.6 29 4.4 39.9
14:55 1010 29.83 839 24.78 22.8 73.1 30 4.4 39.9
15:00 1010 29.83 839 24.78 22.9 73.2 28 3.6 38.4
15:05 1010 29.83 839 24.78 23.1 73.6 28 3.7 38.7
15:10 1010 29.83 839 24.78 22.7 72.9 26 2.2 36
15:15 1010 29.83 839 24.78 22.7 72.8 25 1.9 35.4
15:20 1010 29.83 839 24.78 22.6 72.7 26 2.2 35.9
15:25 1010 29.83 839 24.78 22.6 72.7 26 2.2 36
15:30 1010 29.83 839 24.78 22.4 72.4 26 2 35.6
15:35 1010 29.83 839 24.78 22.2 72 25 1.6 34.8
15:40 1010 29.83 839 24.78 22.3 72.1 26 2.1 35.8
15:45 1010 29.83 840 24.81 22.4 72.4 26 2.1 35.8
15:50 1010 29.83 840 24.81 22.7 72.8 26 2.6 36.7
15:55 1011 29.85 840 24.81 22.8 73 30 4.3 39.7
16:00 1011 29.85 840 24.81 22.7 72.9 31 4.8 40.7
16:05 1011 29.85 840 24.81 20.6 69 41 7.1 44.7
16:10 1011 29.85 841 24.83 18.7 65.7 44 6.3 43.4
16:15 1011 29.85 841 24.83 18.1 64.5 46 6.4 43.4
16:20 1012 29.88 841 24.83 17.9 64.2 47 6.5 43.7
16:25 1012 29.88 841 24.83 17.3 63.1 45 5.5 41.9
16:30 1012 29.88 841 24.83 16.8 62.2 47 5.6 42.1
16:35 1011 29.85 841 24.83 16.9 62.4 47 5.6 42
16:40 1011 29.85 841 24.83 17.1 62.8 46 5.5 41.9
16:45 1011 29.85 840 24.81 17.2 62.9 46 5.7 42.3
16:50 1011 29.85 840 24.81 16.9 62.4 46 5.4 41.7
16:55 1011 29.85 840 24.81 17 62.7 46 5.3 41.6
17:00 1011 29.85 840 24.81 17.6 63.7 42 4.8 40.7
17:05 1011 29.85 840 24.81 18.6 65.4 39 4.5 40
17:10 1011 29.85 840 24.81 19.5 67.1 37 4.5 40.1
17:15 1011 29.85 840 24.81 20.2 68.3 34 4 39.1
17:20 1011 29.85 840 24.81 20.3 68.5 34 4.2 39.6
17:25 1011 29.85 840 24.81 20.1 68.2 34 4 39.1
17:30 1011 29.85 840 24.81 20.2 68.4 35 4.6 40.2
17:35 1011 29.85 840 24.81 19.8 67.6 36 4.5 40
17:40 1011 29.85 840 24.81 19.5 67.1 36 4.4 39.9
17:45 1011 29.85 840 24.81 19.8 67.7 35 4.2 39.6
17:50 1011 29.85 840 24.81 20.1 68.1 35 4.3 39.8
17:55 1011 29.85 840 24.81 20.1 68.2 36 4.8 40.7
18:00 1011 29.85 840 24.81 19.4 66.9 39 5.1 41.1
18:05 1011 29.85 840 24.81 18.9 65.9 40 5.1 41.2
18:10 1011 29.85 840 24.81 18.7 65.7 40 5 41
18:15 1011 29.85 840 24.81 18.6 65.4 41 5.1 41.1
18:20 1011 29.85 840 24.81 18.5 65.2 40 4.7 40.5
18:25 1011 29.85 840 24.81 18.5 65.3 40 4.9 40.7
18:30 1011 29.85 840 24.81 18.3 64.9 41 4.8 40.6
18:35 1011 29.85 840 24.81 18.3 64.9 41 4.8 40.6
18:40 1011 29.85 840 24.81 18.3 65 43 5.5 42
18:45 1011 29.85 840 24.81 18.1 64.7 44 5.9 42.6
18:50 1011 29.85 840 24.81 18 64.3 45 5.9 42.6
18:55 1011 29.85 840 24.81 17.9 64.2 45 5.9 42.5
19:00 1011 29.85 840 24.81 17.9 64.2 44 5.4 41.8
19:05 1011 29.85 841 24.83 17.9 64.3 44 5.5 41.8
19:10 1011 29.85 841 24.83 17.9 64.1 43 5.3 41.5
19:15 1012 29.88 841 24.83 17.7 63.9 44 5.5 41.8
19:20 1012 29.88 841 24.83 17.6 63.7 46 6.1 43
19:25 1012 29.88 841 24.83 17.4 63.4 49 6.8 44.2
19:30 1012 29.88 841 24.83 17.1 62.7 51 7.1 44.7
19:35 1012 29.88 841 24.83 16.8 62.2 53 7.3 45.2
19:40 1012 29.88 841 24.83 16.6 61.8 53 7.1 44.8
19:45 1012 29.88 841 24.83 16.5 61.8 54 7.3 45.2
19:50 1012 29.88 842 24.86 16.4 61.4 57 7.9 46.3
19:55 1013 29.91 842 24.86 16 60.8 59 8 46.4
20:00 1013 29.91 842 24.86 15.4 59.8 61 8.1 46.6
20:05 1013 29.91 842 24.86 14.6 58.3 67 8.6 47.4
20:10 1013 29.91 842 24.86 14 57.2 70 8.6 47.5
20:15 1013 29.91 842 24.86 13.8 56.8 72 8.8 47.8
20:20 1013 29.91 842 24.86 13.4 56 73 8.7 47.7
20:25 1013 29.91 843 24.89 13.2 55.8 72 8.4 47.1
20:30 1013 29.91 842 24.86 13.3 55.9 72 8.4 47
20:35 1013 29.91 843 24.89 13.3 55.9 71 8.2 46.7
20:40 1013 29.91 843 24.89 13.3 55.9 71 8.2 46.7
20:45 1013 29.91 843 24.89 13.2 55.7 71 8.1 46.6
20:50 1013 29.91 843 24.89 13.1 55.6 71 8 46.4
20:55 1013 29.91 842 24.86 12.8 55.1 72 8 46.4
21:00 1013 29.91 842 24.86 12.7 54.9 72 7.9 46.2
21:05 1013 29.91 842 24.86 12.8 55 72 8 46.4
21:10 1013 29.91 842 24.86 12.6 54.6 73 7.9 46.3
21:15 1013 29.91 842 24.86 12.5 54.5 74 8 46.4
21:20 1013 29.91 842 24.86 12.4 54.2 74 7.9 46.2
21:25 1013 29.91 842 24.86 12.3 54.1 74 7.9 46.1
21:30 1013 29.91 842 24.86 12.3 54.1 73 7.7 45.9
21:35 1013 29.91 842 24.86 12.4 54.4 73 7.7 45.8
21:40 1013 29.91 842 24.86 12.5 54.5 72 7.6 45.7
21:45 1013 29.91 842 24.86 12.6 54.6 71 7.5 45.6
21:50 1013 29.91 842 24.86 12.6 54.7 71 7.5 45.5
21:55 1013 29.91 842 24.86 12.6 54.7 71 7.5 45.5
22:00 1013 29.91 842 24.86 12.6 54.7 70 7.4 45.3
22:05 1013 29.91 842 24.86 12.6 54.6 70 7.4 45.2
22:10 1012 29.88 842 24.86 12.5 54.4 71 7.4 45.3
22:15 1012 29.88 842 24.86 12.2 54 72 7.4 45.3
22:20 1012 29.88 842 24.86 12.2 53.9 71 7.1 44.7
22:25 1012 29.88 842 24.86 12.2 54 72 7.3 45.1
22:30 1012 29.88 841 24.83 12.1 53.8 72 7.3 45.1
22:35 1012 29.88 841 24.83 12 53.6 73 7.4 45.2
22:40 1012 29.88 841 24.83 11.9 53.3 74 7.4 45.3
22:45 1012 29.88 841 24.83 11.8 53.2 75 7.5 45.4
22:50 1012 29.88 841 24.83 11.7 53.1 75 7.5 45.5
22:55 1012 29.88 841 24.83 11.6 53 76 7.6 45.6
23:00 1012 29.88 841 24.83 11.6 52.9 76 7.6 45.7
23:05 1012 29.88 841 24.83 11.6 53 76 7.6 45.7
23:10 1012 29.88 841 24.83 11.6 52.9 76 7.5 45.5
23:15 1012 29.88 841 24.83 11.8 53.2 76 7.6 45.7
23:20 1012 29.88 841 24.83 11.8 53.3 75 7.6 45.7
23:25 1012 29.88 841 24.83 11.9 53.5 74 7.6 45.6
23:30 1012 29.88 841 24.83 12.1 53.7 73 7.4 45.4
23:35 1012 29.88 841 24.83 12.2 54 72 7.3 45.2
23:40 1012 29.88 841 24.83 12.4 54.3 71 7.3 45.1
23:45 1012 29.88 841 24.83 12.5 54.5 70 7.1 44.9
23:50 1012 29.88 841 24.83 12.8 55 68 7 44.6
23:55 1012 29.88 841 24.83 13 55.4 66 6.8 44.2
24:00 1012 29.88 841 24.83 13.1 55.6 66 7.1 44.7